createdAt,value
2018-11-10T00:00:44.056Z,9.34
2018-11-10T00:03:49.061Z,9.35
2018-11-10T00:06:55.972Z,9.36
2018-11-10T00:10:01.022Z,9.32
2018-11-10T00:13:06.112Z,9.22
2018-11-10T00:16:13.209Z,9.18
2018-11-10T00:19:20.285Z,9.08
2018-11-10T00:22:25.319Z,9.04
2018-11-10T00:25:32.197Z,9.09
2018-11-10T00:28:37.216Z,9.15
2018-11-10T00:31:42.306Z,9.21
2018-11-10T00:34:47.368Z,9.27
2018-11-10T00:37:56.474Z,9.31
2018-11-10T00:41:01.523Z,9.32
2018-11-10T00:44:14.303Z,9.42
2018-11-10T00:47:30.281Z,9.34
2018-11-10T00:50:39.243Z,9.29
2018-11-10T00:53:44.393Z,9.36
2018-11-10T00:56:59.755Z,9.36
2018-11-10T01:00:05.277Z,9.36
2018-11-10T01:03:12.177Z,9.41
2018-11-10T01:06:17.211Z,9.40
2018-11-10T01:09:24.099Z,9.41
2018-11-10T01:12:30.155Z,9.43
2018-11-10T01:15:36.718Z,9.41
2018-11-10T01:18:45.434Z,9.40
2018-11-10T01:21:52.567Z,9.41
2018-11-10T01:24:59.511Z,9.39
2018-11-10T01:28:04.775Z,9.42
2018-11-10T01:31:11.731Z,9.46
2018-11-10T01:34:20.874Z,9.55
2018-11-10T01:37:27.424Z,9.55
2018-11-10T01:40:36.460Z,9.56
2018-11-10T01:43:43.133Z,9.59
2018-11-10T01:46:48.162Z,9.62
2018-11-10T01:49:58.873Z,9.63
2018-11-10T01:53:06.961Z,9.68
2018-11-10T01:56:13.582Z,9.68
2018-11-10T01:59:18.643Z,9.68
2018-11-10T02:02:23.655Z,9.64
2018-11-10T02:05:30.508Z,9.61
2018-11-10T02:08:37.717Z,9.67
2018-11-10T02:11:42.783Z,9.60
2018-11-10T02:14:47.817Z,9.60
2018-11-10T02:17:54.454Z,9.54
2018-11-10T02:20:59.506Z,9.56
2018-11-10T02:24:08.379Z,9.56
2018-11-10T02:27:19.331Z,9.47
2018-11-10T02:30:24.353Z,9.39
2018-11-10T02:33:31.284Z,9.40
2018-11-10T02:36:38.473Z,9.42
2018-11-10T02:39:43.477Z,9.44
2018-11-10T02:42:48.470Z,9.43
2018-11-10T02:46:10.197Z,9.44
2018-11-10T02:49:16.841Z,9.44
2018-11-10T02:52:23.943Z,9.44
2018-11-10T02:55:30.043Z,9.43
2018-11-10T02:58:38.409Z,9.42
2018-11-10T03:01:45.090Z,9.41
2018-11-10T03:04:50.079Z,9.37
2018-11-10T03:07:55.122Z,9.37
2018-11-10T03:11:00.088Z,9.39
2018-11-10T03:14:05.474Z,9.36
2018-11-10T03:17:12.520Z,9.35
2018-11-10T03:20:17.562Z,9.32
2018-11-10T03:23:24.155Z,9.35
2018-11-10T03:26:31.044Z,9.38
2018-11-10T03:29:37.911Z,9.26
2018-11-10T03:32:44.808Z,9.18
2018-11-10T03:35:57.073Z,9.11
2018-11-10T03:39:06.370Z,9.05
2018-11-10T03:42:13.470Z,9.10
2018-11-10T03:45:20.091Z,9.10
2018-11-10T03:48:27.115Z,9.09
2018-11-10T03:51:33.718Z,9.05
2018-11-10T03:54:38.772Z,9.02
2018-11-10T03:57:45.768Z,9.00
2018-11-10T04:00:54.669Z,8.95
2018-11-10T04:04:01.362Z,9.01
2018-11-10T04:07:06.382Z,9.01
2018-11-10T04:10:14.204Z,9.00
2018-11-10T04:13:21.025Z,8.99
2018-11-10T04:16:26.061Z,9.03
2018-11-10T04:19:32.718Z,9.16
2018-11-10T04:22:55.366Z,9.10
2018-11-10T04:26:00.418Z,9.13
2018-11-10T04:29:07.333Z,9.04
2018-11-10T04:32:12.355Z,9.03
2018-11-10T04:35:17.362Z,9.06
2018-11-10T04:38:24.315Z,9.03
2018-11-10T04:41:29.309Z,9.10
2018-11-10T04:44:35.950Z,9.19
2018-11-10T04:47:42.935Z,9.16
2018-11-10T04:50:51.884Z,9.17
2018-11-10T04:53:57.033Z,9.10
2018-11-10T04:57:04.222Z,9.19
2018-11-10T05:00:11.821Z,9.15
2018-11-10T05:03:18.443Z,8.99
2018-11-10T05:06:23.453Z,8.85
2018-11-10T05:09:28.526Z,8.98
2018-11-10T05:15:04.845Z,8.85
2018-11-10T05:18:11.570Z,8.86
2018-11-10T05:21:16.670Z,8.96
2018-11-10T05:24:21.666Z,8.90
2018-11-10T05:27:26.681Z,8.87
2018-11-10T05:30:31.665Z,8.88
2018-11-10T05:33:36.673Z,8.85
2018-11-10T05:36:43.273Z,8.82
2018-11-10T05:39:48.326Z,8.86
2018-11-10T05:42:57.302Z,8.86
2018-11-10T05:46:02.307Z,8.87
2018-11-10T05:49:09.088Z,8.73
2018-11-10T05:52:16.102Z,8.84
2018-11-10T05:55:22.197Z,8.95
2018-11-10T05:58:27.243Z,8.87
2018-11-10T06:01:33.879Z,8.91
2018-11-10T06:04:38.892Z,8.83
2018-11-10T06:07:45.909Z,8.81
2018-11-10T06:10:52.667Z,8.90
2018-11-10T06:14:01.685Z,9.01
2018-11-10T06:17:06.871Z,8.96
2018-11-10T06:20:14.138Z,8.99
2018-11-10T06:23:19.162Z,8.95
2018-11-10T06:26:24.213Z,8.92
2018-11-10T06:29:29.259Z,8.80
2018-11-10T06:32:34.364Z,8.78
2018-11-10T06:35:41.369Z,8.88
2018-11-10T06:38:48.150Z,8.90
2018-11-10T06:41:54.802Z,8.91
2018-11-10T06:45:01.500Z,8.91
2018-11-10T06:48:06.611Z,8.91
2018-11-10T06:51:13.571Z,8.86
2018-11-10T06:54:23.062Z,8.91
2018-11-10T06:57:29.972Z,8.92
2018-11-10T07:00:36.691Z,9.05
2018-11-10T07:03:41.705Z,9.05
2018-11-10T07:06:46.819Z,9.09
2018-11-10T07:09:55.086Z,9.10
2018-11-10T07:13:04.499Z,9.08
2018-11-10T07:16:09.755Z,8.99
2018-11-10T07:19:14.943Z,9.10
2018-11-10T07:22:21.651Z,9.20
2018-11-10T07:25:26.701Z,9.23
2018-11-10T07:28:34.003Z,9.15
2018-11-10T07:31:41.143Z,9.25
2018-11-10T07:34:48.138Z,9.35
2018-11-10T07:37:54.446Z,9.25
2018-11-10T07:41:01.671Z,9.39
2018-11-10T07:44:06.857Z,9.39
2018-11-10T07:47:13.599Z,9.39
2018-11-10T07:50:18.737Z,9.35
2018-11-10T07:53:23.777Z,9.31
2018-11-10T07:56:30.986Z,9.42
2018-11-10T07:59:37.720Z,9.45
2018-11-10T08:02:43.909Z,9.46
2018-11-10T08:05:53.339Z,9.45
2018-11-10T08:08:58.378Z,9.43
2018-11-10T08:12:05.631Z,9.47
2018-11-10T08:15:12.934Z,9.53
2018-11-10T08:18:18.114Z,9.64
2018-11-10T08:21:24.629Z,9.67
2018-11-10T08:24:31.253Z,9.68
2018-11-10T08:27:38.239Z,9.66
2018-11-10T08:30:43.326Z,9.72
2018-11-10T08:33:50.230Z,9.76
2018-11-10T08:36:58.905Z,9.78
2018-11-10T08:40:06.926Z,9.81
2018-11-10T08:43:13.510Z,9.82
2018-11-10T08:46:18.591Z,9.84
2018-11-10T08:49:23.769Z,9.88
2018-11-10T08:52:35.746Z,10.02
2018-11-10T08:55:45.159Z,10.14
2018-11-10T08:58:52.203Z,10.37
2018-11-10T09:01:59.264Z,10.53
2018-11-10T09:05:07.684Z,10.64
2018-11-10T09:08:12.727Z,10.75
2018-11-10T09:11:19.415Z,10.90
2018-11-10T09:14:26.418Z,10.98
2018-11-10T09:17:33.280Z,11.08
2018-11-10T09:20:46.546Z,11.20
2018-11-10T09:23:58.082Z,11.39
2018-11-10T09:27:03.185Z,11.55
2018-11-10T09:30:13.106Z,11.76
2018-11-10T09:33:20.151Z,11.94
2018-11-10T09:36:28.226Z,12.07
2018-11-10T09:39:33.270Z,12.21
2018-11-10T09:42:38.522Z,12.40
2018-11-10T09:45:43.306Z,12.53
2018-11-10T09:48:48.330Z,12.68
2018-11-10T09:51:53.347Z,12.74
2018-11-10T09:54:58.343Z,12.89
2018-11-10T09:58:03.663Z,13.05
2018-11-10T10:01:15.030Z,13.28
2018-11-10T10:04:19.942Z,13.52
2018-11-10T10:07:24.965Z,13.74
2018-11-10T10:10:29.991Z,14.06
2018-11-10T10:13:34.999Z,14.46
2018-11-10T10:16:40.097Z,14.90
2018-11-10T10:19:45.082Z,15.33
2018-11-10T10:22:50.488Z,15.65
2018-11-10T10:25:55.538Z,15.70
2018-11-10T10:29:00.628Z,15.51
2018-11-10T10:35:36.875Z,15.45
2018-11-10T10:38:41.699Z,15.32
2018-11-10T10:41:46.729Z,15.30
2018-11-10T10:44:51.709Z,15.42
2018-11-10T10:47:56.714Z,15.60
2018-11-10T10:51:01.818Z,15.69
2018-11-10T10:54:10.906Z,15.79
2018-11-10T10:57:16.209Z,15.77
2018-11-10T11:00:27.270Z,15.80
2018-11-10T11:03:42.432Z,15.83
2018-11-10T11:06:50.608Z,15.76
2018-11-10T11:09:55.962Z,15.91
2018-11-10T11:13:03.839Z,15.85
2018-11-10T11:16:12.555Z,15.91
2018-11-10T11:19:19.527Z,16.16
2018-11-10T11:22:28.637Z,16.39
2018-11-10T11:25:35.323Z,16.46
2018-11-10T11:28:44.246Z,16.38
2018-11-10T11:31:53.459Z,16.40
2018-11-10T11:35:00.328Z,16.30
2018-11-10T11:38:05.523Z,16.08
2018-11-10T11:41:10.621Z,16.02
2018-11-10T11:44:17.428Z,16.16
2018-11-10T11:47:26.237Z,16.39
2018-11-10T11:50:31.274Z,16.57
2018-11-10T11:53:36.345Z,16.69
2018-11-10T11:56:41.370Z,16.71
2018-11-10T11:59:46.447Z,16.70
2018-11-10T12:02:51.525Z,16.83
2018-11-10T12:05:58.236Z,17.10
2018-11-10T12:09:06.139Z,16.98
2018-11-10T12:15:11.554Z,17.14
2018-11-10T12:18:17.609Z,17.07
2018-11-10T12:21:26.067Z,17.23
2018-11-10T12:24:32.621Z,17.37
2018-11-10T12:27:37.820Z,17.47
2018-11-10T12:30:42.793Z,17.39
2018-11-10T12:33:49.408Z,17.54
2018-11-10T12:36:56.566Z,17.46
2018-11-10T12:40:03.821Z,17.32
2018-11-10T12:43:12.605Z,17.10
2018-11-10T12:46:19.514Z,17.10
2018-11-10T12:49:27.048Z,16.96
2018-11-10T12:52:32.151Z,17.10
2018-11-10T12:55:42.386Z,17.34
2018-11-10T12:58:49.435Z,17.06
2018-11-10T13:01:56.409Z,16.75
2018-11-10T13:05:03.320Z,16.67
2018-11-10T13:08:08.467Z,16.47
2018-11-10T13:11:15.204Z,16.49
2018-11-10T13:14:22.339Z,16.55
2018-11-10T13:17:29.620Z,16.55
2018-11-10T13:20:34.886Z,16.44
2018-11-10T13:23:45.425Z,16.40
2018-11-10T13:26:52.692Z,16.22
2018-11-10T13:29:59.545Z,16.05
2018-11-10T13:33:06.449Z,16.12
2018-11-10T13:36:13.649Z,16.05
2018-11-10T13:39:20.954Z,16.00
2018-11-10T13:42:28.148Z,16.00
2018-11-10T13:45:35.000Z,15.94
2018-11-10T13:48:40.230Z,15.71
2018-11-10T13:51:45.650Z,15.53
2018-11-10T13:54:52.048Z,15.46
2018-11-10T13:57:57.096Z,15.34
2018-11-10T14:01:02.075Z,15.51
2018-11-10T14:04:07.069Z,15.53
2018-11-10T14:07:12.127Z,15.36
2018-11-10T14:10:19.515Z,15.18
2018-11-10T14:13:26.675Z,14.95
2018-11-10T14:16:33.676Z,14.97
2018-11-10T14:19:38.740Z,14.88
2018-11-10T14:22:44.781Z,14.68
2018-11-10T14:25:50.105Z,14.62
2018-11-10T14:28:57.559Z,14.63
2018-11-10T14:32:08.265Z,14.60
2018-11-10T14:35:17.693Z,14.70
2018-11-10T14:38:28.941Z,14.70
2018-11-10T14:41:33.948Z,14.62
2018-11-10T14:44:44.494Z,14.39
2018-11-10T14:47:49.629Z,14.40
2018-11-10T14:50:56.798Z,14.39
2018-11-10T14:54:01.831Z,14.28
2018-11-10T14:57:06.832Z,13.99
2018-11-10T15:00:17.146Z,13.99
2018-11-10T15:03:22.334Z,13.93
2018-11-10T15:06:27.383Z,13.92
2018-11-10T15:09:34.490Z,13.76
2018-11-10T15:12:42.980Z,13.79
2018-11-10T15:15:50.004Z,13.87
2018-11-10T15:18:57.010Z,13.84
2018-11-10T15:22:04.163Z,13.78
2018-11-10T15:25:12.914Z,13.76
2018-11-10T15:28:20.030Z,13.77
2018-11-10T15:31:26.664Z,13.66
2018-11-10T15:34:31.718Z,13.63
2018-11-10T15:37:38.366Z,13.61
2018-11-10T15:40:45.046Z,13.52
2018-11-10T15:43:52.115Z,13.53
2018-11-10T15:46:59.146Z,13.53
2018-11-10T15:50:07.976Z,13.53
2018-11-10T15:53:14.736Z,13.60
2018-11-10T15:56:19.761Z,13.46
2018-11-10T15:59:26.436Z,13.39
2018-11-10T16:02:33.439Z,13.36
2018-11-10T16:05:38.509Z,13.39
2018-11-10T16:08:43.532Z,13.28
2018-11-10T16:11:48.517Z,13.32
2018-11-10T16:14:53.606Z,13.26
2018-11-10T16:17:58.669Z,13.16
2018-11-10T16:21:03.809Z,13.23
2018-11-10T16:24:09.073Z,13.35
2018-11-10T16:27:15.779Z,13.35
2018-11-10T16:30:20.795Z,13.34
2018-11-10T16:33:25.806Z,13.31
2018-11-10T16:36:30.848Z,13.29
2018-11-10T16:39:35.954Z,13.28
2018-11-10T16:42:43.741Z,13.29
2018-11-10T16:45:50.387Z,13.22
2018-11-10T16:48:57.078Z,13.19
2018-11-10T16:52:02.144Z,13.17
2018-11-10T16:55:07.523Z,13.13
2018-11-10T16:58:16.366Z,13.08
2018-11-10T17:01:25.277Z,13.15
2018-11-10T17:04:32.083Z,13.20
2018-11-10T17:07:39.211Z,13.11
2018-11-10T17:10:46.367Z,13.18
2018-11-10T17:13:56.295Z,13.31
2018-11-10T17:17:01.331Z,13.33
2018-11-10T17:20:08.815Z,13.41
2018-11-10T17:23:13.917Z,13.33
2018-11-10T17:26:21.125Z,13.44
2018-11-10T17:29:27.258Z,13.42
2018-11-10T17:32:32.466Z,13.30
2018-11-10T17:35:39.636Z,13.38
2018-11-10T17:38:44.725Z,13.46
2018-11-10T17:41:51.396Z,13.41
2018-11-10T17:44:57.495Z,13.45
2018-11-10T17:48:09.964Z,13.38
2018-11-10T17:51:15.130Z,13.37
2018-11-10T17:54:20.246Z,13.35
2018-11-10T17:57:27.039Z,13.46
2018-11-10T18:00:32.240Z,13.42
2018-11-10T18:03:39.918Z,13.39
2018-11-10T18:06:47.049Z,13.33
2018-11-10T18:09:52.393Z,13.40
2018-11-10T18:12:59.737Z,13.42
2018-11-10T18:16:12.822Z,13.39
2018-11-10T18:19:20.003Z,13.36
2018-11-10T18:22:26.245Z,13.50
2018-11-10T18:25:32.941Z,13.58
2018-11-10T18:28:38.327Z,13.58
2018-11-10T18:31:45.429Z,13.61
2018-11-10T18:34:52.317Z,13.53
2018-11-10T18:37:59.124Z,13.48
2018-11-10T18:41:06.462Z,13.48
2018-11-10T18:44:11.662Z,13.49
2018-11-10T18:47:18.720Z,13.55
2018-11-10T18:50:23.819Z,13.46
2018-11-10T18:53:28.953Z,13.38
2018-11-10T18:56:34.020Z,13.40
2018-11-10T18:59:41.326Z,13.38
2018-11-10T19:02:48.376Z,13.34
2018-11-10T19:05:53.402Z,13.28
2018-11-10T19:08:58.854Z,13.28
2018-11-10T19:12:04.978Z,13.41
2018-11-10T19:15:15.548Z,13.38
2018-11-10T19:18:24.145Z,13.36
2018-11-10T19:21:29.333Z,13.36
2018-11-10T19:24:36.153Z,13.25
2018-11-10T19:27:42.821Z,13.30
2018-11-10T19:30:47.979Z,13.20
2018-11-10T19:33:54.050Z,13.28
2018-11-10T19:36:59.117Z,13.38
2018-11-10T19:40:05.827Z,13.33
2018-11-10T19:43:11.075Z,13.42
2018-11-10T19:46:16.117Z,13.33
2018-11-10T19:49:21.412Z,13.30
2018-11-10T19:52:26.388Z,13.12
2018-11-10T19:55:31.426Z,13.13
2018-11-10T19:58:36.466Z,13.16
2018-11-10T20:01:41.542Z,13.11
2018-11-10T20:04:46.859Z,13.16
2018-11-10T20:07:51.902Z,13.17
2018-11-10T20:10:57.005Z,13.09
2018-11-10T20:14:02.085Z,12.97
2018-11-10T20:17:07.022Z,13.01
2018-11-10T20:20:16.438Z,12.92
2018-11-10T20:23:21.516Z,12.95
2018-11-10T20:26:27.748Z,12.93
2018-11-10T20:29:32.787Z,12.97
2018-11-10T20:32:38.524Z,13.04
2018-11-10T20:35:43.577Z,13.07
2018-11-10T20:38:48.757Z,13.06
2018-11-10T20:41:53.727Z,13.13
2018-11-10T20:44:58.783Z,13.08
2018-11-10T20:48:04.335Z,13.10
2018-11-10T20:51:09.500Z,13.04
2018-11-10T20:54:14.506Z,12.99
2018-11-10T20:57:21.277Z,13.00
2018-11-10T21:00:28.767Z,12.95
2018-11-10T21:03:35.947Z,12.96
2018-11-10T21:06:42.633Z,13.00
2018-11-10T21:09:49.072Z,12.90
2018-11-10T21:15:05.846Z,12.82
2018-11-10T21:18:12.558Z,12.78
2018-11-10T21:21:17.561Z,12.75
2018-11-10T21:24:24.362Z,12.76
2018-11-10T21:27:29.390Z,12.81
2018-11-10T21:30:34.411Z,12.82
2018-11-10T21:33:41.597Z,12.89
2018-11-10T21:36:46.875Z,12.91
2018-11-10T21:39:51.984Z,12.94
2018-11-10T21:42:57.056Z,13.03
2018-11-10T21:46:02.116Z,12.94
2018-11-10T21:49:09.594Z,12.80
2018-11-10T21:52:14.651Z,12.77
2018-11-10T21:55:19.885Z,12.81
2018-11-10T21:58:25.018Z,12.94
2018-11-10T22:01:30.149Z,12.80
2018-11-10T22:04:36.888Z,12.83
2018-11-10T22:07:41.881Z,12.85
2018-11-10T22:10:47.202Z,12.83
2018-11-10T22:13:52.204Z,12.85
2018-11-10T22:16:57.402Z,12.85
2018-11-10T22:20:02.902Z,12.73
2018-11-10T22:23:08.001Z,12.71
2018-11-10T22:26:12.972Z,12.80
2018-11-10T22:29:18.025Z,12.90
2018-11-10T22:32:23.211Z,12.87
2018-11-10T22:35:28.294Z,13.02
2018-11-10T22:38:33.287Z,12.85
2018-11-10T22:41:38.938Z,12.85
2018-11-10T22:44:43.934Z,12.89
2018-11-10T22:47:49.607Z,12.95
2018-11-10T22:50:54.549Z,12.95
2018-11-10T22:53:59.550Z,12.88
2018-11-10T22:57:04.905Z,12.73
2018-11-10T23:03:13.230Z,12.55
2018-11-10T23:06:18.254Z,12.26
2018-11-10T23:09:23.445Z,12.17
2018-11-10T23:12:28.463Z,12.12
2018-11-10T23:15:33.453Z,12.10
2018-11-10T23:18:38.516Z,12.08
2018-11-10T23:21:43.579Z,12.15
2018-11-10T23:24:48.600Z,12.09
2018-11-10T23:27:53.585Z,12.15
2018-11-10T23:30:58.622Z,12.18
2018-11-10T23:34:04.049Z,12.19
2018-11-10T23:37:09.084Z,12.18
2018-11-10T23:40:16.890Z,12.12
2018-11-10T23:43:24.870Z,12.15
2018-11-10T23:46:29.912Z,12.08
2018-11-10T23:49:34.981Z,12.15
2018-11-10T23:52:41.613Z,12.07
2018-11-10T23:55:46.593Z,12.00
2018-11-10T23:58:54.557Z,12.15
